Time;durP1;ratioP1;P1;durP2;ratioP2;P2;SDS_P1;SDS_P2;PMS_P1;PMS_P2;Temp;Humidity;BMP_temperature;BMP_pressure;BME280_temperature;BME280_humidity;BME280_pressure;Samples;Min_cycle;Max_cycle;Signal;HPM_P1;HPM_P2
2023/10/28 00:00:42;;;;;;;21.60;5.70;;;;;;;8.64;100.00;99365.31;4952933;28;20503;-66
2023/10/28 00:03:08;;;;;;;20.80;5.95;;;;;;;8.68;100.00;99368.22;4933620;28;20040;-67
2023/10/28 00:05:33;;;;;;;23.52;5.75;;;;;;;8.69;100.00;99367.09;4948639;28;20174;-65
2023/10/28 00:07:59;;;;;;;21.90;5.95;;;;;;;8.72;100.00;99367.22;4949969;29;20106;-64
2023/10/28 00:10:25;;;;;;;20.00;5.32;;;;;;;8.74;100.00;99367.69;4951070;28;20019;-66
2023/10/28 00:12:50;;;;;;;22.17;5.85;;;;;;;8.77;100.00;99365.41;4935842;29;20027;-66
2023/10/28 00:15:18;;;;;;;18.95;5.53;;;;;;;8.77;100.00;99376.44;4943296;29;20027;-65
2023/10/28 00:17:47;;;;;;;22.15;5.78;;;;;;;8.77;100.00;99373.69;4933696;29;20043;-66
2023/10/28 00:20:14;;;;;;;21.73;5.85;;;;;;;8.76;100.00;99381.16;4936610;29;20040;-66
2023/10/28 00:22:40;;;;;;;19.63;5.60;;;;;;;8.77;100.00;99377.28;4933267;29;20035;-65
2023/10/28 00:25:05;;;;;;;20.45;5.70;;;;;;;8.77;100.00;99379.19;4952047;28;20027;-66
2023/10/28 00:27:33;;;;;;;19.60;5.18;;;;;;;8.76;100.00;99378.41;4936383;28;20048;-66
2023/10/28 00:30:00;;;;;;;22.33;6.35;;;;;;;8.73;100.00;99377.13;4947839;29;20033;-65
2023/10/28 00:32:26;;;;;;;21.55;5.20;;;;;;;8.72;100.00;99383.78;4946117;28;20023;-65
2023/10/28 00:34:51;;;;;;;21.55;5.72;;;;;;;8.73;100.00;99381.81;4932678;29;20119;-65
2023/10/28 00:37:17;;;;;;;19.17;5.40;;;;;;;8.73;100.00;99374.38;4932457;29;20427;-66
2023/10/28 00:39:43;;;;;;;22.67;6.32;;;;;;;8.70;100.00;99372.25;4936208;29;20088;-65
2023/10/28 00:42:13;;;;;;;23.58;5.95;;;;;;;8.72;100.00;99378.25;4932729;29;20078;-65
2023/10/28 00:44:41;;;;;;;19.45;5.28;;;;;;;8.73;100.00;99379.06;4949339;29;20063;-66
2023/10/28 00:47:06;;;;;;;21.80;5.78;;;;;;;8.67;100.00;99372.13;4942028;29;20504;-66
2023/10/28 00:49:31;;;;;;;19.65;5.93;;;;;;;8.73;100.00;99379.88;4932505;29;20040;-65
2023/10/28 00:51:58;;;;;;;19.58;5.78;;;;;;;8.74;100.00;99388.94;4932518;29;20035;-65
2023/10/28 00:54:24;;;;;;;19.60;5.57;;;;;;;8.73;100.00;99379.06;4937216;28;20028;-65
2023/10/28 00:56:50;;;;;;;22.00;5.63;;;;;;;8.74;100.00;99386.19;4946259;28;20057;-65
2023/10/28 00:59:15;;;;;;;20.25;4.97;;;;;;;8.74;100.00;99383.44;4952013;28;20031;-65
2023/10/28 01:01:40;;;;;;;21.13;5.10;;;;;;;8.72;100.00;99382.94;4950027;28;20115;-65
2023/10/28 01:04:06;;;;;;;18.38;5.10;;;;;;;8.72;100.00;99383.78;4951565;28;20428;-66
2023/10/28 01:06:31;;;;;;;19.58;4.82;;;;;;;8.72;100.00;99375.50;4949271;29;20549;-66
2023/10/28 01:08:57;;;;;;;20.90;4.63;;;;;;;8.72;100.00;99382.94;4945492;29;20055;-66
2023/10/28 01:11:22;;;;;;;21.25;4.97;;;;;;;8.75;100.00;99379.53;4942431;29;20348;-66
2023/10/28 01:13:47;;;;;;;21.50;4.57;;;;;;;8.70;100.00;99369.50;4944367;29;20131;-66
2023/10/28 01:16:13;;;;;;;19.92;4.45;;;;;;;8.75;100.00;99371.28;4950746;28;20493;-66
2023/10/28 01:18:38;;;;;;;19.33;4.57;;;;;;;8.75;100.00;99371.28;4932017;29;20032;-66
2023/10/28 01:21:13;;;;;;;19.38;4.40;;;;;;;8.74;100.00;99378.72;4947420;28;20022;-66
2023/10/28 01:23:38;;;;;;;18.17;4.38;;;;;;;8.79;100.00;99379.69;4957986;28;20502;-65
2023/10/28 01:26:03;;;;;;;20.77;4.53;;;;;;;8.77;100.00;99377.28;4938894;29;20057;-64
2023/10/28 01:28:32;;;;;;;19.13;4.70;;;;;;;8.79;100.00;99372.22;4932043;29;20123;-65
2023/10/28 01:30:57;;;;;;;20.52;4.65;;;;;;;8.82;100.00;99374.31;4932015;29;20024;-65
2023/10/28 01:33:22;;;;;;;17.35;4.45;;;;;;;8.84;100.00;99382.25;4950595;28;20069;-65
2023/10/28 01:35:48;;;;;;;20.73;4.82;;;;;;;8.85;100.00;99372.84;4950956;28;20090;-65
2023/10/28 01:38:13;;;;;;;14.88;4.28;;;;;;;8.84;100.00;99377.56;4935028;29;20028;-65
2023/10/28 01:40:38;;;;;;;16.85;3.75;;;;;;;8.86;100.00;99372.53;4931878;29;20036;-65
2023/10/28 01:43:05;;;;;;;19.40;4.15;;;;;;;8.89;100.00;99376.56;4931920;29;20052;-66
2023/10/28 01:45:30;;;;;;;16.25;3.70;;;;;;;8.90;100.00;99376.22;4946341;29;20036;-66
2023/10/28 01:47:56;;;;;;;17.30;4.10;;;;;;;8.88;100.00;99367.47;4950588;29;20015;-66
2023/10/28 01:50:21;;;;;;;17.95;4.00;;;;;;;8.94;100.00;99378.34;4951476;29;20142;-67
2023/10/28 01:52:47;;;;;;;15.95;3.67;;;;;;;8.94;100.00;99376.38;4951410;29;20510;-66
2023/10/28 01:55:12;;;;;;;16.80;3.78;;;;;;;8.97;100.00;99374.94;4934816;29;20126;-65
2023/10/28 01:57:38;;;;;;;15.07;3.30;;;;;;;9.00;100.00;99369.56;4932026;29;20091;-65
2023/10/28 02:00:06;;;;;;;15.73;3.53;;;;;;;8.98;100.00;99371.81;4936791;28;20504;-66
2023/10/28 02:02:36;;;;;;;12.70;3.17;;;;;;;8.99;100.00;99362.41;4933874;29;20445;-66
2023/10/28 02:05:01;;;;;;;18.58;3.30;;;;;;;8.99;100.00;99373.44;4932101;29;20083;-66
2023/10/28 02:07:27;;;;;;;11.45;2.95;;;;;;;9.01;100.00;99370.34;4933406;29;20044;-66
2023/10/28 02:09:52;;;;;;;14.05;3.58;;;;;;;9.01;100.00;99367.59;4930994;29;20040;-66
2023/10/28 02:12:18;;;;;;;12.95;3.17;;;;;;;8.99;100.00;99364.34;4938616;28;20055;-65
2023/10/28 02:14:43;;;;;;;13.77;3.13;;;;;;;8.99;100.00;99364.34;4968146;28;20034;-64
2023/10/28 02:17:10;;;;;;;10.50;2.85;;;;;;;9.02;100.00;99369.22;4959108;28;20479;-65
2023/10/28 02:19:35;;;;;;;14.15;2.80;;;;;;;8.98;100.00;99366.31;4944872;29;20379;-64
2023/10/28 02:22:00;;;;;;;11.52;2.45;;;;;;;9.01;100.00;99370.34;4936164;29;20032;-65
2023/10/28 02:24:26;;;;;;;10.98;2.70;;;;;;;9.01;100.00;99368.41;4931782;29;20384;-64
2023/10/28 02:26:51;;;;;;;15.30;2.88;;;;;;;9.01;100.00;99371.16;4931414;29;20412;-66
2023/10/28 02:29:17;;;;;;;13.93;3.15;;;;;;;9.00;100.00;99375.06;4937867;29;20094;-65
2023/10/28 02:31:43;;;;;;;12.98;3.10;;;;;;;9.01;100.00;99373.09;4951774;28;20422;-65
2023/10/28 02:34:10;;;;;;;11.07;2.85;;;;;;;9.00;100.00;99371.47;4950522;29;20062;-65
2023/10/28 02:36:36;;;;;;;11.13;2.60;;;;;;;8.99;100.00;99369.88;4950723;28;20074;-65
2023/10/28 02:39:01;;;;;;;10.23;2.45;;;;;;;8.98;100.00;99371.81;4949191;29;20423;-65
2023/10/28 02:41:27;;;;;;;10.63;2.40;;;;;;;8.96;100.00;99373.31;4939138;29;20035;-64
2023/10/28 02:43:52;;;;;;;9.57;2.50;;;;;;;8.95;100.00;99364.19;4937724;28;20349;-65
2023/10/28 02:46:24;;;;;;;9.75;2.30;;;;;;;8.94;100.00;99370.84;4950345;29;20070;-66
2023/10/28 02:48:51;;;;;;;5.55;1.88;;;;;;;8.94;100.00;99370.06;4949153;28;20035;-65
2023/10/28 02:51:17;;;;;;;10.48;2.40;;;;;;;8.90;100.00;99367.97;4942919;29;20027;-65
2023/10/28 02:53:43;;;;;;;10.85;2.33;;;;;;;8.92;100.00;99367.66;4939575;28;20143;-66
2023/10/28 02:56:08;;;;;;;8.23;2.10;;;;;;;8.90;100.00;99373.47;4945145;29;20535;-66
2023/10/28 02:58:34;;;;;;;8.63;2.50;;;;;;;8.91;100.00;99368.78;4953590;28;20376;-66
2023/10/28 03:01:10;;;;;;;10.07;2.30;;;;;;;8.89;100.00;99377.38;4954112;29;20047;-66
2023/10/28 03:03:35;;;;;;;11.35;2.60;;;;;;;8.87;100.00;99376.09;4954037;29;20031;-66
2023/10/28 03:06:01;;;;;;;9.73;2.15;;;;;;;8.88;100.00;99380.47;4944972;29;20026;-66
2023/10/28 03:08:26;;;;;;;5.32;2.03;;;;;;;8.89;100.00;99373.81;4935319;29;20456;-65
2023/10/28 03:10:52;;;;;;;9.23;2.72;;;;;;;8.84;100.00;99380.31;4937935;28;20031;-65
2023/10/28 03:13:17;;;;;;;10.45;2.30;;;;;;;8.88;100.00;99389.53;4954450;29;20031;-65
2023/10/28 03:15:46;;;;;;;9.23;2.30;;;;;;;8.88;100.00;99388.75;4954730;29;20031;-65
2023/10/28 03:18:12;;;;;;;7.50;2.22;;;;;;;8.85;100.00;99383.88;4954663;29;20043;-65
2023/10/28 03:20:37;;;;;;;7.85;2.00;;;;;;;8.87;100.00;99381.59;4954470;29;20039;-65
2023/10/28 03:23:02;;;;;;;9.57;2.33;;;;;;;8.89;100.00;99382.09;4941102;29;20451;-66
2023/10/28 03:25:28;;;;;;;11.68;2.60;;;;;;;8.89;100.00;99373.81;4935320;29;20072;-65
2023/10/28 03:27:53;;;;;;;8.00;2.53;;;;;;;8.92;100.00;99375.09;4936255;29;20027;-65
2023/10/28 03:30:19;;;;;;;9.52;2.80;;;;;;;8.90;100.00;99380.94;4944708;29;20130;-64
2023/10/28 03:32:44;;;;;;;10.00;2.60;;;;;;;8.91;100.00;99382.56;4953555;29;20033;-64
2023/10/28 03:35:09;;;;;;;8.98;2.50;;;;;;;8.91;100.00;99393.59;4935422;29;20032;-65
2023/10/28 03:37:37;;;;;;;11.00;2.70;;;;;;;8.91;100.00;99382.56;4948570;29;20027;-64
2023/10/28 03:40:04;;;;;;;10.48;2.83;;;;;;;8.91;100.00;99385.34;4940315;29;20035;-65
2023/10/28 03:42:29;;;;;;;7.13;2.60;;;;;;;8.87;100.00;99387.13;4942884;28;20070;-65
2023/10/28 03:44:55;;;;;;;14.35;2.97;;;;;;;8.87;100.00;99387.94;4933864;29;20055;-65
2023/10/28 03:47:21;;;;;;;11.57;3.20;;;;;;;8.83;100.00;99386.19;4934223;29;21085;-64
2023/10/28 03:49:46;;;;;;;12.52;3.03;;;;;;;8.79;100.00;99388.75;4943744;29;20050;-65
2023/10/28 03:52:12;;;;;;;11.48;2.90;;;;;;;8.73;100.00;99390.91;4946626;29;20063;-65
2023/10/28 03:54:37;;;;;;;12.90;2.97;;;;;;;8.66;100.00;99390.59;4952118;29;20344;-66
2023/10/28 03:57:02;;;;;;;11.95;2.83;;;;;;;8.60;100.00;99386.41;4934159;29;20158;-65
2023/10/28 03:59:28;;;;;;;11.60;3.67;;;;;;;8.57;100.00;99385.13;4933783;29;20036;-65
2023/10/28 04:01:53;;;;;;;11.07;3.10;;;;;;;8.50;100.00;99378.47;4933770;29;20028;-65
2023/10/28 04:04:19;;;;;;;11.98;3.30;;;;;;;8.50;100.00;99375.72;4933253;29;20051;-65
2023/10/28 04:06:44;;;;;;;11.23;3.00;;;;;;;8.49;100.00;99380.44;4941888;28;20058;-64
2023/10/28 04:09:09;;;;;;;14.90;3.47;;;;;;;8.48;100.00;99378.00;4946063;28;20143;-64
2023/10/28 04:11:35;;;;;;;15.13;3.20;;;;;;;8.49;100.00;99379.63;4932965;29;20313;-66
2023/10/28 04:14:00;;;;;;;10.93;3.15;;;;;;;8.50;100.00;99376.53;4933077;29;20472;-65
2023/10/28 04:16:25;;;;;;;12.80;3.22;;;;;;;8.51;100.00;99374.59;4945394;29;20035;-65
2023/10/28 04:18:52;;;;;;;14.45;3.25;;;;;;;8.50;100.00;99376.53;4949340;29;20118;-65
2023/10/28 04:21:17;;;;;;;13.82;3.42;;;;;;;8.52;100.00;99373.44;4951922;29;20436;-65
2023/10/28 04:23:42;;;;;;;10.85;2.80;;;;;;;8.56;100.00;99366.97;4936797;28;20050;-65
2023/10/28 04:26:08;;;;;;;11.52;3.00;;;;;;;8.58;100.00;99370.19;4936414;29;20477;-65
2023/10/28 04:28:34;;;;;;;12.70;3.10;;;;;;;8.60;100.00;99369.06;4932827;29;20043;-64
2023/10/28 04:31:00;;;;;;;10.70;2.80;;;;;;;8.62;100.00;99367.59;4939298;29;20028;-65
2023/10/28 04:33:26;;;;;;;11.63;3.35;;;;;;;8.66;100.00;99368.53;4935079;29;20035;-65
2023/10/28 04:35:52;;;;;;;11.05;2.80;;;;;;;8.66;100.00;99359.47;4945140;28;20550;-65
2023/10/28 04:38:21;;;;;;;13.98;3.00;;;;;;;8.66;100.00;99359.47;4951892;29;20129;-65
2023/10/28 04:40:46;;;;;;;11.90;3.13;;;;;;;8.68;100.00;99360.75;4935092;29;20114;-66
2023/10/28 04:43:12;;;;;;;11.95;2.90;;;;;;;8.70;100.00;99358.47;4932117;29;20122;-66
2023/10/28 04:45:41;;;;;;;12.48;3.15;;;;;;;8.68;100.00;99359.94;4935279;29;20122;-66
2023/10/28 04:48:08;;;;;;;10.65;3.10;;;;;;;8.72;100.00;99363.66;4946683;28;20027;-66
2023/10/28 04:50:33;;;;;;;9.95;2.90;;;;;;;8.70;100.00;99355.72;4945938;29;20039;-65
2023/10/28 04:52:58;;;;;;;9.70;2.80;;;;;;;8.72;100.00;99352.63;4942039;28;20031;-66
2023/10/28 04:55:25;;;;;;;12.18;3.33;;;;;;;8.71;100.00;99360.09;4949216;28;20035;-67
2023/10/28 04:57:51;;;;;;;11.27;2.78;;;;;;;8.73;100.00;99359.75;4937893;29;20054;-65
2023/10/28 05:00:16;;;;;;;10.73;2.63;;;;;;;8.76;100.00;99359.09;4931683;29;20032;-64
2023/10/28 05:02:42;;;;;;;7.38;2.65;;;;;;;8.77;100.00;99360.72;4932364;29;20024;-65
2023/10/28 05:05:07;;;;;;;13.32;2.80;;;;;;;8.74;100.00;99351.16;4943545;29;20063;-65
2023/10/28 05:07:33;;;;;;;9.38;2.90;;;;;;;8.76;100.00;99353.59;4946769;28;20145;-64
2023/10/28 05:09:59;;;;;;;12.70;2.50;;;;;;;8.76;100.00;99348.06;4950199;29;20420;-64
2023/10/28 05:12:24;;;;;;;11.98;2.80;;;;;;;8.77;100.00;99346.13;4951106;28;20522;-65
2023/10/28 05:14:50;;;;;;;13.30;3.50;;;;;;;8.78;100.00;99350.50;4942068;29;20063;-67
2023/10/28 05:17:16;;;;;;;8.63;3.00;;;;;;;8.79;100.00;99350.16;4945795;28;20039;-66
2023/10/28 05:19:41;;;;;;;10.25;2.80;;;;;;;8.80;100.00;99345.47;4931879;29;20110;-66
2023/10/28 05:22:08;;;;;;;7.63;2.50;;;;;;;8.81;100.00;99352.59;4947780;29;20055;-66
2023/10/28 05:24:33;;;;;;;11.85;3.08;;;;;;;8.82;100.00;99348.72;4950709;28;20039;-65
2023/10/28 05:26:58;;;;;;;12.77;3.10;;;;;;;8.81;100.00;99356.16;4931518;29;20059;-66
2023/10/28 05:29:24;;;;;;;11.82;2.80;;;;;;;8.80;100.00;99348.22;4939785;28;20024;-65
2023/10/28 05:31:49;;;;;;;11.85;3.08;;;;;;;8.82;100.00;99354.22;4931275;29;20035;-65
2023/10/28 05:34:15;;;;;;;11.05;2.72;;;;;;;8.83;100.00;99347.56;4936735;28;20031;-65
2023/10/28 05:36:40;;;;;;;10.18;2.70;;;;;;;8.81;100.00;99344.34;4942025;28;20034;-66
2023/10/28 05:39:07;;;;;;;13.65;3.17;;;;;;;8.82;100.00;99348.72;4966608;28;20027;-65
2023/10/28 05:41:32;;;;;;;13.20;2.88;;;;;;;8.83;100.00;99348.38;4943986;29;20036;-65
2023/10/28 05:43:57;;;;;;;12.02;2.83;;;;;;;8.84;100.00;99350.00;4931210;29;20035;-66
2023/10/28 05:46:23;;;;;;;10.30;2.80;;;;;;;8.88;100.00;99352.88;4935122;28;20255;-66
2023/10/28 05:48:50;;;;;;;13.35;2.92;;;;;;;8.87;100.00;99352.09;4930586;29;20035;-66
2023/10/28 05:51:15;;;;;;;11.23;2.67;;;;;;;8.88;100.00;99355.66;4930716;29;20387;-68
2023/10/28 05:53:41;;;;;;;11.23;2.63;;;;;;;8.88;100.00;99364.72;4941165;29;20031;-66
2023/10/28 05:56:06;;;;;;;11.15;2.70;;;;;;;8.86;100.00;99358.75;4949133;29;20456;-66
2023/10/28 05:58:31;;;;;;;13.05;3.13;;;;;;;8.89;100.00;99360.81;4946061;28;20199;-67
2023/10/28 06:00:59;;;;;;;11.95;3.03;;;;;;;8.90;100.00;99364.41;4949523;28;20039;-67
2023/10/28 06:03:26;;;;;;;11.77;3.15;;;;;;;8.92;100.00;99372.34;4938659;29;20035;-66
2023/10/28 06:05:52;;;;;;;12.35;3.20;;;;;;;8.89;100.00;99369.09;4942252;28;20050;-66
2023/10/28 06:08:17;;;;;;;12.68;2.92;;;;;;;8.91;100.00;99366.03;4929873;29;20352;-66
2023/10/28 06:10:45;;;;;;;15.10;3.15;;;;;;;8.91;100.00;99377.06;4946302;28;20553;-66
2023/10/28 06:13:11;;;;;;;16.15;3.20;;;;;;;8.90;100.00;99369.91;4943129;29;20107;-67
2023/10/28 06:15:37;;;;;;;10.68;3.00;;;;;;;8.88;100.00;99370.22;4931493;29;20096;-66
2023/10/28 06:18:02;;;;;;;14.80;3.20;;;;;;;8.90;100.00;99375.44;4949383;28;20028;-67
2023/10/28 06:20:27;;;;;;;10.18;2.90;;;;;;;8.88;100.00;99367.47;4930086;29;20055;-67
2023/10/28 06:22:53;;;;;;;16.15;3.22;;;;;;;8.91;100.00;99377.06;4941471;29;20031;-67
2023/10/28 06:25:19;;;;;;;15.23;3.38;;;;;;;8.92;100.00;99375.91;4957387;28;20036;-66
2023/10/28 06:27:44;;;;;;;10.90;3.03;;;;;;;8.93;100.00;99374.75;4958663;28;20533;-67
2023/10/28 06:30:14;;;;;;;14.95;3.15;;;;;;;8.95;100.00;99382.72;4941196;28;20035;-66
2023/10/28 06:32:40;;;;;;;13.38;3.50;;;;;;;8.94;100.00;99375.56;4934564;29;20039;-67
2023/10/28 06:35:06;;;;;;;13.63;3.45;;;;;;;8.93;100.00;99376.72;4940303;29;20098;-68
2023/10/28 06:37:31;;;;;;;13.93;3.47;;;;;;;8.92;100.00;99383.38;4934480;29;20452;-66
2023/10/28 06:39:58;;;;;;;9.80;3.00;;;;;;;8.92;100.00;99388.88;4934307;29;20451;-66
2023/10/28 06:42:23;;;;;;;11.65;3.40;;;;;;;8.89;100.00;99379.31;4942690;29;20031;-66
2023/10/28 06:44:49;;;;;;;12.93;3.42;;;;;;;8.97;100.00;99380.44;4946428;28;20096;-65
2023/10/28 06:47:14;;;;;;;13.27;3.20;;;;;;;9.00;100.00;99383.34;4950651;28;20671;-66
2023/10/28 06:49:41;;;;;;;13.13;3.15;;;;;;;9.02;100.00;99388.53;4941719;29;20054;-65
2023/10/28 06:52:07;;;;;;;12.82;2.92;;;;;;;9.01;100.00;99379.44;4933421;29;20770;-66
2023/10/28 06:54:33;;;;;;;15.02;3.30;;;;;;;9.05;100.00;99377.63;4933488;29;20123;-68
2023/10/28 06:56:58;;;;;;;13.23;2.85;;;;;;;9.09;100.00;99379.72;4933791;29;20145;-66
2023/10/28 06:59:24;;;;;;;12.63;3.05;;;;;;;9.10;100.00;99368.34;4933759;29;20036;-66
2023/10/28 07:01:49;;;;;;;13.75;3.13;;;;;;;9.12;100.00;99384.56;4933925;29;20030;-67
2023/10/28 07:04:14;;;;;;;17.13;4.15;;;;;;;9.12;100.00;99377.13;4947580;29;20035;-67
2023/10/28 07:06:40;;;;;;;11.73;3.15;;;;;;;9.14;100.00;99369.31;4934010;29;20042;-67
2023/10/28 07:09:05;;;;;;;14.93;3.28;;;;;;;9.16;100.00;99377.25;4947230;28;20490;-67
2023/10/28 07:11:31;;;;;;;13.15;3.08;;;;;;;9.18;100.00;99378.53;4953162;28;20089;-67
2023/10/28 07:13:56;;;;;;;16.00;3.00;;;;;;;9.21;100.00;99382.56;4950292;28;20031;-67
2023/10/28 07:16:21;;;;;;;14.23;3.10;;;;;;;9.21;100.00;99379.81;4947502;29;20042;-66
2023/10/28 07:18:48;;;;;;;13.38;3.22;;;;;;;9.24;100.00;99381.13;4936563;29;20031;-66
2023/10/28 07:21:14;;;;;;;13.20;3.00;;;;;;;9.24;100.00;99389.41;4934321;29;20083;-67
2023/10/28 07:23:39;;;;;;;13.02;3.00;;;;;;;9.23;100.00;99394.09;4934322;29;20024;-68
2023/10/28 07:26:04;;;;;;;13.13;3.00;;;;;;;9.29;100.00;99387.25;4944164;29;20403;-67
2023/10/28 07:28:38;;;;;;;13.77;3.50;;;;;;;9.29;100.00;99390.00;4950007;28;20035;-66
2023/10/28 07:31:04;;;;;;;11.30;2.80;;;;;;;9.38;100.00;99397.44;4952357;29;20031;-67
2023/10/28 07:33:30;;;;;;;12.88;2.75;;;;;;;9.41;100.00;99397.56;4938791;29;20036;-66
2023/10/28 07:35:55;;;;;;;9.68;2.97;;;;;;;9.48;100.00;99391.53;4937899;29;20166;-68
2023/10/28 07:38:21;;;;;;;15.20;3.20;;;;;;;9.52;100.00;99396.03;4946773;29;20035;-65
2023/10/28 07:40:48;;;;;;;11.45;2.80;;;;;;;9.56;100.00;99387.91;4937732;28;20038;-66
2023/10/28 07:43:17;;;;;;;14.18;3.20;;;;;;;9.58;100.00;99396.66;4938007;29;20391;-66
2023/10/28 07:45:42;;;;;;;16.13;3.50;;;;;;;9.59;100.00;99397.47;4940136;28;20023;-67
2023/10/28 07:48:11;;;;;;;13.77;3.10;;;;;;;9.62;100.00;99396.81;4957738;28;20180;-67
2023/10/28 07:50:37;;;;;;;9.18;2.67;;;;;;;9.70;100.00;99397.88;4933864;29;20563;-67
2023/10/28 07:53:04;;;;;;;9.73;2.80;;;;;;;9.74;100.00;99405.13;4937430;29;20055;-67
2023/10/28 07:55:30;;;;;;;11.13;2.70;;;;;;;9.78;100.00;99406.09;4933074;29;20032;-66
2023/10/28 07:57:55;;;;;;;14.20;3.63;;;;;;;9.84;100.00;99415.78;4933321;29;20031;-64
2023/10/28 08:00:21;;;;;;;14.45;3.13;;;;;;;9.91;100.00;99414.47;4940619;29;20031;-64
2023/10/28 08:02:46;;;;;;;15.15;2.80;;;;;;;9.96;100.00;99419.78;4941255;29;20593;-65
2023/10/28 08:05:12;;;;;;;12.15;2.40;;;;;;;9.98;100.00;99423.81;4948766;29;20039;-66
2023/10/28 08:07:38;;;;;;;14.10;2.95;;;;;;;10.05;100.00;99416.94;4949586;28;20043;-67
2023/10/28 08:10:04;;;;;;;13.00;2.95;;;;;;;10.11;100.00;99426.66;4942992;28;20087;-65
2023/10/28 08:12:30;;;;;;;10.90;2.55;;;;;;;10.17;100.00;99428.03;4933191;29;20047;-65
2023/10/28 08:14:56;;;;;;;12.75;2.95;;;;;;;10.23;100.00;99423.13;4933539;29;20090;-66
2023/10/28 08:17:21;;;;;;;10.77;2.60;;;;;;;10.28;100.00;99432.03;4932736;29;20110;-66
2023/10/28 08:19:47;;;;;;;9.35;2.78;;;;;;;10.34;100.00;99435.38;4932490;29;20035;-66
2023/10/28 08:22:12;;;;;;;14.45;2.65;;;;;;;10.35;100.00;99430.66;4932660;29;20115;-66
2023/10/28 08:24:39;;;;;;;9.77;2.70;;;;;;;10.43;100.00;99438.13;4932552;29;20063;-64
2023/10/28 08:27:04;;;;;;;11.95;2.60;;;;;;;10.44;100.00;99434.16;4932688;29;20047;-65
2023/10/28 08:29:31;;;;;;;11.23;2.80;;;;;;;10.50;100.00;99443.91;4930993;29;20103;-66
2023/10/28 08:31:57;;;;;;;11.95;2.90;;;;;;;10.58;100.00;99445.75;4930799;29;20102;-65
2023/10/28 08:34:24;;;;;;;9.60;2.83;;;;;;;10.60;100.00;99451.78;4948316;28;20462;-66
2023/10/28 08:36:52;;;;;;;11.77;2.50;;;;;;;10.63;100.00;99455.00;4951998;28;20042;-65
2023/10/28 08:39:17;;;;;;;15.70;2.75;;;;;;;10.62;100.00;99451.41;4947940;28;20518;-67
2023/10/28 08:41:43;;;;;;;13.63;2.70;;;;;;;10.62;100.00;99454.19;4948807;28;20031;-67
2023/10/28 08:44:08;;;;;;;13.68;2.90;;;;;;;10.64;100.00;99448.31;4946644;29;20082;-67
2023/10/28 08:46:37;;;;;;;16.73;2.88;;;;;;;10.67;100.00;99451.22;4950456;29;20038;-65
2023/10/28 08:49:04;;;;;;;10.52;2.42;;;;;;;10.75;100.00;99458.63;4946792;28;20041;-67
2023/10/28 08:51:29;;;;;;;13.23;2.67;;;;;;;10.82;100.00;99465.53;4949079;29;20023;-66
2023/10/28 08:53:57;;;;;;;14.05;2.70;;;;;;;10.89;100.00;99463.00;4945931;28;20055;-66
2023/10/28 08:56:26;;;;;;;14.23;2.50;;;;;;;10.91;100.00;99472.59;4949198;29;20027;-64
2023/10/28 08:58:55;;;;;;;12.57;2.75;;;;;;;11.01;100.00;99460.28;4947277;28;20035;-65
2023/10/28 09:01:22;;;;;;;11.48;2.53;;;;;;;11.06;100.00;99468.34;4950092;28;20479;-64
2023/10/28 09:03:54;;;;;;;16.55;2.92;;;;;;;11.14;100.00;99471.38;4951171;28;20475;-65
2023/10/28 09:06:20;;;;;;;12.00;2.83;;;;;;;11.21;100.00;99468.84;4947188;29;20035;-66
2023/10/28 09:08:45;;;;;;;12.60;2.78;;;;;;;11.28;100.00;99468.28;4947609;29;20047;-65
2023/10/28 09:11:11;;;;;;;12.18;2.75;;;;;;;11.35;100.00;99474.84;4946968;29;20054;-65
2023/10/28 09:13:38;;;;;;;12.68;2.80;;;;;;;11.41;100.00;99467.13;4947316;28;20432;-67
2023/10/28 09:16:04;;;;;;;14.00;3.03;;;;;;;11.51;100.00;99465.88;4942284;29;20057;-65
2023/10/28 09:18:39;;;;;;;15.60;3.00;;;;;;;11.62;100.00;99482.81;4943230;28;20118;-66
2023/10/28 09:21:09;;;;;;;14.32;3.13;;;;;;;11.69;100.00;99481.09;4940485;29;20039;-67
2023/10/28 09:23:38;;;;;;;12.13;2.47;;;;;;;11.70;100.00;99473.59;4943485;29;20042;-67
2023/10/28 09:26:04;;;;;;;18.35;2.88;;;;;;;11.70;100.00;99479.13;4950323;29;20079;-66
2023/10/28 09:28:30;;;;;;;10.73;2.70;;;;;;;11.71;100.00;99475.19;4951112;28;20109;-66
2023/10/28 09:30:57;;;;;;;9.18;2.63;;;;;;;11.73;100.00;99472.91;4950687;28;20035;-67
2023/10/28 09:33:22;;;;;;;15.20;2.90;;;;;;;11.84;100.00;99482.34;4950609;28;20371;-66
2023/10/28 09:35:53;;;;;;;15.30;3.00;;;;;;;12.01;100.00;99477.72;4946204;28;20024;-66
2023/10/28 09:38:20;;;;;;;13.82;3.35;;;;;;;12.14;100.00;99478.50;4951905;29;20117;-67
2023/10/28 09:40:48;;;;;;;12.02;2.42;;;;;;;12.20;100.00;99481.84;4948563;29;20027;-65
2023/10/28 09:43:15;;;;;;;12.82;2.75;;;;;;;12.28;100.00;99467.81;4950114;29;20573;-66
2023/10/28 09:45:41;;;;;;;14.32;2.58;;;;;;;12.38;100.00;99474.88;4949750;29;20027;-66
2023/10/28 09:48:14;;;;;;;12.82;2.50;;;;;;;12.41;100.00;99476.13;4950106;29;20187;-66
2023/10/28 09:50:48;;;;;;;8.32;2.10;;;;;;;12.44;100.00;99478.19;4950010;28;20071;-66
2023/10/28 09:53:16;;;;;;;12.02;2.55;;;;;;;12.47;100.00;99483.03;4950096;29;20198;-66
2023/10/28 09:55:43;;;;;;;9.93;2.28;;;;;;;12.47;100.00;99481.06;4948164;28;20032;-67
2023/10/28 09:58:15;;;;;;;11.27;2.30;;;;;;;12.53;100.00;99478.84;4949454;29;20031;-66
2023/10/28 10:00:42;;;;;;;12.50;2.30;;;;;;;12.57;100.00;99479.75;4949738;28;20086;-66
2023/10/28 10:03:32;;;;;;;13.82;2.63;;;;;;;12.60;100.00;99476.28;4949796;29;20739;-66
2023/10/28 10:05:58;;;;;;;7.70;2.30;;;;;;;12.59;100.00;99482.19;4951925;28;20047;-67
2023/10/28 10:08:24;;;;;;;14.07;2.70;;;;;;;12.66;100.00;99476.03;4918109;28;1040661;-66
2023/10/28 10:10:52;;;;;;;9.93;2.15;;;;;;;12.68;100.00;99473.69;4954816;29;20066;-66
2023/10/28 10:13:17;;;;;;;14.30;2.53;;;;;;;12.66;100.00;99464.94;4954637;28;20046;-67
2023/10/28 10:15:52;;;;;;;11.05;2.30;;;;;;;12.66;100.00;99476.84;4951765;29;20383;-66
2023/10/28 10:18:30;;;;;;;16.20;2.75;;;;;;;12.61;100.00;99483.44;4952127;29;20093;-66
2023/10/28 10:21:07;;;;;;;11.98;2.30;;;;;;;12.69;100.00;99487.22;4953961;29;20031;-67
2023/10/28 10:23:52;;;;;;;10.35;2.42;;;;;;;12.77;100.00;99488.22;4953551;28;20086;-67
2023/10/28 10:26:21;;;;;;;12.27;2.30;;;;;;;12.75;100.00;99491.34;4951425;28;20789;-65
2023/10/28 10:28:47;;;;;;;12.98;2.28;;;;;;;12.72;100.00;99482.94;4952996;29;20086;-65
2023/10/28 10:31:12;;;;;;;13.13;2.20;;;;;;;12.83;100.00;99499.88;4953016;28;20069;-65
2023/10/28 10:33:38;;;;;;;10.18;2.28;;;;;;;12.85;100.00;99503.91;4953092;28;20043;-66
2023/10/28 10:36:15;;;;;;;12.15;2.50;;;;;;;12.87;100.00;99492.47;4953649;28;20058;-67
2023/10/28 10:38:41;;;;;;;14.73;2.50;;;;;;;13.04;100.00;99492.13;4953872;28;20027;-66
2023/10/28 10:41:07;;;;;;;9.07;2.05;;;;;;;13.15;100.00;99494.38;4953821;28;20042;-66
2023/10/28 10:43:32;;;;;;;13.60;2.60;;;;;;;13.16;100.00;99496.78;4952036;29;20038;-66
2023/10/28 10:45:58;;;;;;;10.10;2.17;;;;;;;13.16;100.00;99501.56;4953784;28;20039;-67
2023/10/28 10:48:25;;;;;;;13.23;2.30;;;;;;;13.08;100.00;99490.25;4949644;29;20787;-66
2023/10/28 10:50:51;;;;;;;10.65;2.28;;;;;;;13.09;100.00;99485.50;4950599;28;20043;-65
2023/10/28 10:53:16;;;;;;;13.45;2.20;;;;;;;13.13;100.00;99488.38;4951762;28;20035;-64
2023/10/28 10:55:42;;;;;;;12.65;2.50;;;;;;;13.08;100.00;99493.00;4953585;29;20135;-64
2023/10/28 10:58:07;;;;;;;12.93;2.25;;;;;;;13.08;100.00;99498.56;4948300;29;20123;-65
2023/10/28 11:00:33;;;;;;;14.80;2.70;;;;;;;13.06;100.00;99494.53;4953329;28;20406;-66
2023/10/28 11:03:00;;;;;;;11.15;2.00;;;;;;;13.09;100.00;99494.63;4951202;28;20098;-66
2023/10/28 11:05:32;;;;;;;13.10;2.40;;;;;;;13.07;100.00;99493.38;4951305;29;20061;-66
2023/10/28 11:07:58;;;;;;;11.10;2.00;;;;;;;13.11;100.00;99491.53;4949582;28;20074;-66
2023/10/28 11:10:24;;;;;;;13.48;2.30;;;;;;;13.23;100.00;99487.84;4951149;28;20460;-65
2023/10/28 11:12:50;;;;;;;13.82;2.40;;;;;;;13.36;100.00;99500.50;4953985;28;20106;-65
2023/10/28 11:15:16;;;;;;;8.63;2.00;;;;;;;13.47;100.00;99492.44;4949724;28;20142;-66
2023/10/28 11:17:42;;;;;;;12.75;2.85;;;;;;;13.56;100.00;99483.91;4951773;28;20039;-66
2023/10/28 11:20:10;;;;;;;11.60;2.50;;;;;;;13.64;100.00;99480.16;4950913;28;20091;-66